createdAt,value
2018-09-17T00:02:24.731Z,18.06
2018-09-17T00:04:54.832Z,18.09
2018-09-17T00:07:24.747Z,18.09
2018-09-17T00:09:54.812Z,18.06
2018-09-17T00:12:24.825Z,18.03
2018-09-17T00:14:54.975Z,18.01
2018-09-17T00:17:24.858Z,17.93
2018-09-17T00:19:54.776Z,17.94
2018-09-17T00:22:24.787Z,17.98
2018-09-17T00:24:54.789Z,17.93
2018-09-17T00:27:24.843Z,17.95
2018-09-17T00:29:54.854Z,17.89
2018-09-17T00:32:24.855Z,17.78
2018-09-17T00:34:54.871Z,17.80
2018-09-17T00:37:24.897Z,17.85
2018-09-17T00:39:54.908Z,17.91
2018-09-17T00:42:24.820Z,17.79
2018-09-17T00:44:54.836Z,17.84
2018-09-17T00:47:26.876Z,17.82
2018-09-17T00:49:56.035Z,17.77
2018-09-17T00:52:25.216Z,17.74
2018-09-17T00:54:55.118Z,17.73
2018-09-17T00:57:24.936Z,17.70
2018-09-17T00:59:54.895Z,17.67
2018-09-17T01:02:24.872Z,17.56
2018-09-17T01:04:55.048Z,17.56
2018-09-17T01:07:24.999Z,17.48
2018-09-17T01:09:54.931Z,17.47
2018-09-17T01:12:24.101Z,17.39
2018-09-17T01:14:53.369Z,17.37
2018-09-17T01:17:22.537Z,17.45
2018-09-17T01:19:51.714Z,17.48
2018-09-17T01:22:20.894Z,17.43
2018-09-17T01:24:50.089Z,17.35
2018-09-17T01:27:19.259Z,17.37
2018-09-17T01:29:48.488Z,17.35
2018-09-17T01:32:17.591Z,17.34
2018-09-17T01:34:46.775Z,17.33
2018-09-17T01:37:15.921Z,17.32
2018-09-17T01:39:45.095Z,17.18
2018-09-17T01:42:14.267Z,17.22
2018-09-17T01:44:43.603Z,17.24
2018-09-17T01:47:12.777Z,17.09
2018-09-17T01:49:42.035Z,17.10
2018-09-17T01:52:11.223Z,17.12
2018-09-17T01:54:40.385Z,17.08
2018-09-17T01:57:09.549Z,17.06
2018-09-17T01:59:38.718Z,17.06
2018-09-17T02:02:08.954Z,17.04
2018-09-17T02:04:38.129Z,17.09
2018-09-17T02:07:07.603Z,17.04
2018-09-17T02:09:40.516Z,17.11
2018-09-17T02:12:11.557Z,17.15
2018-09-17T02:14:41.476Z,17.02
2018-09-17T02:17:10.680Z,17.01
2018-09-17T02:19:40.067Z,16.96
2018-09-17T02:22:09.970Z,16.84
2018-09-17T02:24:39.427Z,16.83
2018-09-17T02:27:08.610Z,16.81
2018-09-17T02:29:37.800Z,16.87
2018-09-17T02:32:07.056Z,16.89
2018-09-17T02:34:36.215Z,16.79
2018-09-17T02:37:05.505Z,16.88
2018-09-17T02:39:34.670Z,16.93
2018-09-17T02:42:03.824Z,16.86
2018-09-17T02:44:32.984Z,16.84
2018-09-17T02:47:02.259Z,16.86
2018-09-17T02:49:31.422Z,16.86
2018-09-17T02:52:00.575Z,16.76
2018-09-17T02:54:29.749Z,16.77
2018-09-17T02:56:58.907Z,16.78
2018-09-17T02:59:28.070Z,16.81
2018-09-17T03:01:57.260Z,16.72
2018-09-17T03:04:26.428Z,16.80
2018-09-17T03:06:55.589Z,16.69
2018-09-17T03:09:25.264Z,16.72
2018-09-17T03:11:55.294Z,16.68
2018-09-17T03:14:30.319Z,16.72
2018-09-17T03:17:15.827Z,16.79
2018-09-17T03:19:46.227Z,16.67
2018-09-17T03:22:16.038Z,16.64
2018-09-17T03:24:45.196Z,16.65
2018-09-17T03:27:14.419Z,16.65
2018-09-17T03:29:43.554Z,16.67
2018-09-17T03:32:12.711Z,16.73
2018-09-17T03:34:41.852Z,16.59
2018-09-17T03:37:10.986Z,16.56
2018-09-17T03:39:40.482Z,16.72
2018-09-17T03:42:09.628Z,16.72
2018-09-17T03:44:38.786Z,16.73
2018-09-17T03:47:07.938Z,16.60
2018-09-17T03:49:37.081Z,16.65
2018-09-17T03:52:06.311Z,16.66
2018-09-17T03:54:35.454Z,16.59
2018-09-17T03:57:04.600Z,16.60
2018-09-17T03:59:33.796Z,16.69
2018-09-17T04:02:02.971Z,16.69
2018-09-17T04:04:32.118Z,16.69
2018-09-17T04:07:01.286Z,16.64
2018-09-17T04:09:30.437Z,16.57
2018-09-17T04:11:59.592Z,16.59
2018-09-17T04:14:28.788Z,16.52
2018-09-17T04:16:58.066Z,16.55
2018-09-17T04:19:27.201Z,16.59
2018-09-17T04:21:56.350Z,16.61
2018-09-17T04:24:25.515Z,16.59
2018-09-17T04:26:55.528Z,16.56
2018-09-17T04:29:25.472Z,16.60
2018-09-17T04:31:55.474Z,16.62
2018-09-17T04:34:25.472Z,16.53
2018-09-17T04:36:55.498Z,16.53
2018-09-17T04:39:26.470Z,16.51
2018-09-17T04:41:55.614Z,16.48
2018-09-17T04:44:25.612Z,16.54
2018-09-17T04:46:55.573Z,16.52
2018-09-17T04:49:25.534Z,16.52
2018-09-17T04:51:55.613Z,16.42
2018-09-17T04:54:25.676Z,16.46
2018-09-17T04:56:55.706Z,16.33
2018-09-17T04:59:25.651Z,16.36
2018-09-17T05:01:55.618Z,16.42
2018-09-17T05:04:25.599Z,16.35
2018-09-17T05:06:55.695Z,16.45
2018-09-17T05:09:25.703Z,16.45
2018-09-17T05:11:55.688Z,16.40
2018-09-17T05:14:25.671Z,16.33
2018-09-17T05:16:55.828Z,16.24
2018-09-17T05:19:27.250Z,16.32
2018-09-17T05:21:56.399Z,16.30
2018-09-17T05:24:25.714Z,16.18
2018-09-17T05:26:55.792Z,16.09
2018-09-17T05:29:26.198Z,16.27
2018-09-17T05:31:56.126Z,16.11
2018-09-17T05:34:25.704Z,16.11
2018-09-17T05:36:55.759Z,15.99
2018-09-17T05:39:25.724Z,16.14
2018-09-17T05:41:55.791Z,16.23
2018-09-17T05:44:25.856Z,16.22
2018-09-17T05:46:55.878Z,16.30
2018-09-17T05:49:25.865Z,16.30
2018-09-17T05:51:55.972Z,16.28
2018-09-17T05:54:25.810Z,16.35
2018-09-17T05:56:55.939Z,16.34
2018-09-17T05:59:25.943Z,16.31
2018-09-17T06:01:55.855Z,16.29
2018-09-17T06:04:25.852Z,16.33
2018-09-17T06:06:55.945Z,16.41
2018-09-17T06:09:25.926Z,16.40
2018-09-17T06:11:56.032Z,16.47
2018-09-17T06:14:25.998Z,16.58
2018-09-17T06:16:55.978Z,16.66
2018-09-17T06:19:26.041Z,16.72
2018-09-17T06:21:56.280Z,16.79
2018-09-17T06:24:25.919Z,16.86
2018-09-17T06:26:55.894Z,16.94
2018-09-17T06:29:25.976Z,16.98
2018-09-17T06:31:56.018Z,17.07
2018-09-17T06:34:26.050Z,17.08
2018-09-17T06:39:25.923Z,17.22
2018-09-17T06:41:56.014Z,17.40
2018-09-17T06:44:25.959Z,17.44
2018-09-17T06:46:55.998Z,17.54
2018-09-17T06:49:26.002Z,17.61
2018-09-17T06:51:56.274Z,17.67
2018-09-17T06:54:26.040Z,17.74
2018-09-17T06:56:56.117Z,17.83
2018-09-17T06:59:26.135Z,17.88
2018-09-17T07:01:55.988Z,17.99
2018-09-17T07:04:26.116Z,18.07
2018-09-17T07:06:56.566Z,18.16
2018-09-17T07:09:26.086Z,18.20
2018-09-17T07:11:56.082Z,18.28
2018-09-17T07:14:26.079Z,18.38
2018-09-17T07:16:56.141Z,18.52
2018-09-17T07:19:26.132Z,18.56
2018-09-17T07:21:56.524Z,18.63
2018-09-17T07:24:26.499Z,18.72
2018-09-17T07:26:56.678Z,18.83
2018-09-17T07:29:26.656Z,18.86
2018-09-17T07:31:56.758Z,19.02
2018-09-17T07:34:26.838Z,19.06
2018-09-17T07:36:56.860Z,19.10
2018-09-17T07:39:26.810Z,19.20
2018-09-17T07:41:56.875Z,19.37
2018-09-17T07:44:27.025Z,19.47
2018-09-17T07:46:56.807Z,19.55
2018-09-17T07:49:27.130Z,19.57
2018-09-17T07:51:56.835Z,19.64
2018-09-17T07:54:26.782Z,19.85
2018-09-17T07:56:56.800Z,19.96
2018-09-17T07:59:26.912Z,20.05
2018-09-17T08:01:56.799Z,20.16
2018-09-17T08:04:26.920Z,20.18
2018-09-17T08:06:56.832Z,20.22
2018-09-17T08:09:26.987Z,20.35
2018-09-17T08:11:56.920Z,20.51
2018-09-17T08:14:26.847Z,20.71
2018-09-17T08:16:56.910Z,20.76
2018-09-17T08:19:27.010Z,21.02
2018-09-17T08:21:57.003Z,21.14
2018-09-17T08:24:26.972Z,21.30
2018-09-17T08:26:56.991Z,21.43
2018-09-17T08:29:26.963Z,21.55
2018-09-17T08:31:56.987Z,21.82
2018-09-17T08:34:27.760Z,21.88
2018-09-17T08:36:56.989Z,21.93
2018-09-17T08:39:26.956Z,22.01
2018-09-17T08:41:57.041Z,22.16
2018-09-17T08:44:27.004Z,22.29
2018-09-17T08:46:57.066Z,22.39
2018-09-17T08:49:27.015Z,22.44
2018-09-17T08:51:57.106Z,22.52
2018-09-17T08:54:27.123Z,22.56
2018-09-17T08:56:59.219Z,22.67
2018-09-17T08:59:33.824Z,22.75
2018-09-17T09:02:08.199Z,22.96
2018-09-17T09:04:42.620Z,22.96
2018-09-17T09:07:15.846Z,23.04
2018-09-17T09:09:45.048Z,23.19
2018-09-17T09:12:22.016Z,23.18
2018-09-17T09:14:56.202Z,23.35
2018-09-17T09:17:25.350Z,23.34
2018-09-17T09:19:54.552Z,23.37
2018-09-17T09:22:23.708Z,23.41
2018-09-17T09:24:52.859Z,23.47
2018-09-17T09:27:22.016Z,23.70
2018-09-17T09:29:51.236Z,23.76
2018-09-17T09:32:20.381Z,23.90
2018-09-17T09:34:49.555Z,23.97
2018-09-17T09:37:18.698Z,24.04
2018-09-17T09:39:47.854Z,24.12
2018-09-17T09:42:17.151Z,24.12
2018-09-17T09:44:46.296Z,24.13
2018-09-17T09:47:15.460Z,23.98
2018-09-17T09:49:44.694Z,23.99
2018-09-17T09:52:13.936Z,23.89
2018-09-17T09:54:43.097Z,23.91
2018-09-17T09:57:12.304Z,23.95
2018-09-17T09:59:41.568Z,24.02
2018-09-17T10:02:15.858Z,24.02
2018-09-17T10:04:45.015Z,24.02
2018-09-17T10:07:14.180Z,24.04
2018-09-17T10:10:47.549Z,24.02
2018-09-17T10:13:21.922Z,23.95
2018-09-17T10:15:56.768Z,24.24
2018-09-17T10:18:32.580Z,24.52
2018-09-17T10:21:01.823Z,24.79
2018-09-17T10:23:30.960Z,24.79
2018-09-17T10:26:00.160Z,24.95
2018-09-17T10:28:29.311Z,24.90
2018-09-17T10:30:58.458Z,24.84
2018-09-17T10:33:27.613Z,24.93
2018-09-17T10:35:57.343Z,25.24
2018-09-17T10:38:27.296Z,25.34
2018-09-17T10:40:57.425Z,25.47
2018-09-17T10:43:27.314Z,25.73
2018-09-17T10:45:57.297Z,25.75
2018-09-17T10:48:27.364Z,25.97
2018-09-17T10:50:57.295Z,26.11
2018-09-17T10:53:27.272Z,26.26
2018-09-17T10:55:57.306Z,26.13
2018-09-17T10:58:27.329Z,26.12
2018-09-17T11:00:57.353Z,26.13
2018-09-17T11:03:27.354Z,26.64
2018-09-17T11:05:57.316Z,26.35
2018-09-17T11:08:27.341Z,26.15
2018-09-17T11:10:57.398Z,26.16
2018-09-17T11:13:27.435Z,26.09
2018-09-17T11:15:57.435Z,26.09
2018-09-17T11:18:27.532Z,26.14
2018-09-17T11:20:57.372Z,26.35
2018-09-17T11:23:27.449Z,26.53
2018-09-17T11:25:57.447Z,26.45
2018-09-17T11:28:27.443Z,26.49
2018-09-17T11:30:57.493Z,26.52
2018-09-17T11:33:27.472Z,26.61
2018-09-17T11:35:57.432Z,26.69
2018-09-17T11:38:27.489Z,26.75
2018-09-17T11:40:57.598Z,26.96
2018-09-17T11:43:27.531Z,26.75
2018-09-17T11:45:57.503Z,26.82
2018-09-17T11:48:27.604Z,26.94
2018-09-17T11:50:57.472Z,27.06
2018-09-17T11:53:27.503Z,27.21
2018-09-17T11:55:57.539Z,27.15
2018-09-17T11:58:27.554Z,27.09
2018-09-17T12:01:02.941Z,26.99
2018-09-17T12:03:37.328Z,27.06
2018-09-17T12:06:06.478Z,27.19
2018-09-17T12:08:35.650Z,27.28
2018-09-17T12:11:04.798Z,27.24
2018-09-17T12:13:33.956Z,27.32
2018-09-17T12:16:03.108Z,27.33
2018-09-17T12:18:32.279Z,27.33
2018-09-17T12:21:01.447Z,27.18
2018-09-17T12:23:30.620Z,27.13
2018-09-17T12:25:59.804Z,26.97
2018-09-17T12:28:28.954Z,26.95
2018-09-17T12:30:58.099Z,27.06
2018-09-17T12:33:27.710Z,27.21
2018-09-17T12:35:57.706Z,27.10
2018-09-17T12:38:27.592Z,27.11
2018-09-17T12:40:57.664Z,27.08
2018-09-17T12:43:27.666Z,27.11
2018-09-17T12:45:57.639Z,27.12
2018-09-17T12:48:27.660Z,27.16
2018-09-17T12:50:57.736Z,27.26
2018-09-17T12:53:27.776Z,27.33
2018-09-17T12:55:57.820Z,27.20
2018-09-17T12:58:27.719Z,27.18
2018-09-17T13:00:57.798Z,27.22
2018-09-17T13:03:27.770Z,27.15
2018-09-17T13:05:57.846Z,27.15
2018-09-17T13:08:27.773Z,27.21
2018-09-17T13:10:57.819Z,27.29
2018-09-17T13:13:27.787Z,27.10
2018-09-17T13:15:57.755Z,27.17
2018-09-17T13:18:27.728Z,27.19
2018-09-17T13:20:57.776Z,27.06
2018-09-17T13:23:27.839Z,27.12
2018-09-17T13:25:57.828Z,27.12
2018-09-17T13:28:27.822Z,27.18
2018-09-17T13:30:57.808Z,27.11
2018-09-17T13:33:27.906Z,27.09
2018-09-17T13:35:57.839Z,27.09
2018-09-17T13:38:27.794Z,27.17
2018-09-17T13:40:57.862Z,27.27
2018-09-17T13:43:27.899Z,27.43
2018-09-17T13:45:57.913Z,27.35
2018-09-17T13:48:27.866Z,27.14
2018-09-17T13:50:57.883Z,27.08
2018-09-17T13:53:27.899Z,27.04
2018-09-17T13:55:57.847Z,27.06
2018-09-17T13:58:27.829Z,27.14
2018-09-17T14:00:58.019Z,27.19
2018-09-17T14:03:28.911Z,27.34
2018-09-17T14:05:58.060Z,27.31
2018-09-17T14:08:27.908Z,27.05
2018-09-17T14:10:57.978Z,27.01
2018-09-17T14:13:27.931Z,27.10
2018-09-17T14:16:03.796Z,27.13
2018-09-17T14:18:33.442Z,27.00
2018-09-17T14:21:02.664Z,27.04
2018-09-17T14:23:31.886Z,26.93
2018-09-17T14:26:01.213Z,26.98
2018-09-17T14:28:31.419Z,26.92
2018-09-17T14:31:00.550Z,26.85
2018-09-17T14:33:35.027Z,26.83
2018-09-17T14:36:04.213Z,27.16
2018-09-17T14:38:33.405Z,27.09
2018-09-17T14:41:02.696Z,27.01
2018-09-17T14:43:31.994Z,26.98
2018-09-17T14:46:01.199Z,26.88
2018-09-17T14:48:30.446Z,26.77
2018-09-17T14:50:59.590Z,26.69
2018-09-17T14:53:28.881Z,26.63
2018-09-17T14:55:58.023Z,26.60
2018-09-17T14:58:28.213Z,26.49
2018-09-17T15:00:58.075Z,26.38
2018-09-17T15:03:28.038Z,26.33
2018-09-17T15:05:58.132Z,26.29
2018-09-17T15:08:28.178Z,26.31
2018-09-17T15:10:58.291Z,26.35
2018-09-17T15:13:28.093Z,26.31
2018-09-17T15:15:59.452Z,26.31
2018-09-17T15:18:28.944Z,26.32
2018-09-17T15:20:58.125Z,26.32
2018-09-17T15:23:28.099Z,26.27
2018-09-17T15:25:58.196Z,26.26
2018-09-17T15:28:28.265Z,26.15
2018-09-17T15:30:58.197Z,26.18
2018-09-17T15:33:28.188Z,26.16
2018-09-17T15:35:59.662Z,26.14
2018-09-17T15:38:28.935Z,26.12
2018-09-17T15:40:58.394Z,26.15
2018-09-17T15:43:28.249Z,26.18
2018-09-17T15:45:58.210Z,26.14
2018-09-17T15:48:28.252Z,26.09
2018-09-17T15:50:58.187Z,26.07
2018-09-17T15:53:28.212Z,26.04
2018-09-17T15:55:58.279Z,25.97
2018-09-17T15:58:28.187Z,25.98
2018-09-17T16:00:58.210Z,25.93
2018-09-17T16:03:28.282Z,25.92
2018-09-17T16:05:58.380Z,25.87
2018-09-17T16:08:28.365Z,25.87
2018-09-17T16:10:58.476Z,25.80
2018-09-17T16:13:28.323Z,25.80
2018-09-17T16:16:00.310Z,25.76
2018-09-17T16:18:29.588Z,25.78
2018-09-17T16:20:58.800Z,25.73
2018-09-17T16:23:28.312Z,25.72
2018-09-17T16:25:58.436Z,25.71
2018-09-17T16:28:28.311Z,25.66
2018-09-17T16:30:58.439Z,25.65
2018-09-17T16:33:28.482Z,25.60
2018-09-17T16:35:59.115Z,25.56
2018-09-17T16:38:28.344Z,25.52
2018-09-17T16:40:58.384Z,25.51
2018-09-17T16:43:28.390Z,25.68
2018-09-17T16:46:00.405Z,25.50
2018-09-17T16:48:29.555Z,25.41
2018-09-17T16:50:58.768Z,25.35
2018-09-17T16:53:28.436Z,25.30
2018-09-17T16:55:59.511Z,25.28
2018-09-17T16:58:28.755Z,25.23
2018-09-17T17:00:58.403Z,25.20
2018-09-17T17:03:28.462Z,25.16
2018-09-17T17:05:58.565Z,25.13
2018-09-17T17:08:28.440Z,25.09
2018-09-17T17:10:58.635Z,25.02
2018-09-17T17:13:28.507Z,24.97
2018-09-17T17:15:58.579Z,24.94
2018-09-17T17:18:28.541Z,24.89
2018-09-17T17:20:58.597Z,24.84
2018-09-17T17:23:28.700Z,24.77
2018-09-17T17:25:58.512Z,24.73
2018-09-17T17:28:28.563Z,24.69
2018-09-17T17:30:58.780Z,24.64
2018-09-17T17:33:28.580Z,24.58
2018-09-17T17:36:00.949Z,24.50
2018-09-17T17:38:30.215Z,24.42
2018-09-17T17:40:59.509Z,24.36
2018-09-17T17:43:28.755Z,24.29
2018-09-17T17:45:58.630Z,24.19
2018-09-17T17:48:28.737Z,24.11
2018-09-17T17:50:58.887Z,24.06
2018-09-17T17:53:28.575Z,24.00
2018-09-17T17:55:58.668Z,23.94
2018-09-17T17:58:28.602Z,23.88
2018-09-17T18:06:05.174Z,23.48
2018-09-17T18:08:34.344Z,23.47
2018-09-17T18:11:03.493Z,23.45
2018-09-17T18:13:32.666Z,23.41
2018-09-17T18:16:01.976Z,23.34
2018-09-17T18:18:31.262Z,23.30
2018-09-17T18:21:00.524Z,23.24
2018-09-17T18:23:29.691Z,23.13
2018-09-17T18:25:58.860Z,23.12
2018-09-17T18:28:28.872Z,23.02
2018-09-17T18:30:58.724Z,22.96
2018-09-17T18:33:28.802Z,22.92
2018-09-17T18:35:58.752Z,22.87
2018-09-17T18:38:28.693Z,22.83
2018-09-17T18:40:58.732Z,22.78
2018-09-17T18:43:28.771Z,22.79
2018-09-17T18:45:58.851Z,22.71
2018-09-17T18:48:28.886Z,22.65
2018-09-17T18:50:58.963Z,22.55
2018-09-17T18:53:28.803Z,22.50
2018-09-17T18:56:00.735Z,22.36
2018-09-17T18:58:29.904Z,22.25
2018-09-17T19:00:59.155Z,22.11
2018-09-17T19:03:28.890Z,22.15
2018-09-17T19:05:59.126Z,22.14
2018-09-17T19:08:29.948Z,22.05
2018-09-17T19:10:59.903Z,21.98
2018-09-17T19:13:29.187Z,21.88
2018-09-17T19:16:00.404Z,21.80
2018-09-17T19:18:29.572Z,21.68
2018-09-17T19:20:59.104Z,21.60
2018-09-17T19:23:34.121Z,21.45
2018-09-17T19:26:03.314Z,21.35
2018-09-17T19:28:37.639Z,21.31
2018-09-17T19:31:07.006Z,21.27
2018-09-17T19:33:36.272Z,21.28
2018-09-17T19:36:05.462Z,21.22
2018-09-17T19:38:39.951Z,21.26
2018-09-17T19:41:09.360Z,21.26
2018-09-17T19:43:38.533Z,21.24
2018-09-17T19:46:19.527Z,21.13
2018-09-17T19:48:49.247Z,21.09
2018-09-17T19:51:23.928Z,21.04
2018-09-17T19:53:53.158Z,21.03
2018-09-17T19:56:22.463Z,20.94
2018-09-17T19:58:56.863Z,20.89
2018-09-17T20:01:26.535Z,20.87
2018-09-17T20:03:55.703Z,20.80
2018-09-17T20:06:26.657Z,20.77
2018-09-17T20:08:55.943Z,20.77
2018-09-17T20:11:25.108Z,20.66
2018-09-17T20:13:54.475Z,20.57
2018-09-17T20:16:23.770Z,20.55
2018-09-17T20:18:52.935Z,20.40
2018-09-17T20:21:22.189Z,20.39
2018-09-17T20:23:51.439Z,20.32
2018-09-17T20:26:20.659Z,20.25
2018-09-17T20:28:49.830Z,20.26
2018-09-17T20:31:19.500Z,20.12
2018-09-17T20:33:48.806Z,20.12
2018-09-17T20:36:18.072Z,20.15
2018-09-17T20:38:47.380Z,19.96
2018-09-17T20:41:16.543Z,19.91
2018-09-17T20:43:45.690Z,19.89
2018-09-17T20:46:14.970Z,19.85
2018-09-17T20:48:44.177Z,19.94
2018-09-17T20:51:13.324Z,19.81
2018-09-17T20:53:42.582Z,19.89
2018-09-17T20:56:11.830Z,19.83
2018-09-17T20:58:41.028Z,19.86
2018-09-17T21:01:10.387Z,19.81
2018-09-17T21:03:39.432Z,19.79
2018-09-17T21:06:08.591Z,19.79
2018-09-17T21:08:37.723Z,19.80
2018-09-17T21:11:06.872Z,19.76
2018-09-17T21:13:36.075Z,19.80
2018-09-17T21:16:05.258Z,19.69
2018-09-17T21:18:34.425Z,19.69
2018-09-17T21:21:03.560Z,19.68
2018-09-17T21:23:32.703Z,19.65
2018-09-17T21:26:01.844Z,19.61
2018-09-17T21:28:30.978Z,19.53
2018-09-17T21:31:00.251Z,19.56
2018-09-17T21:33:29.359Z,19.54
2018-09-17T21:35:59.256Z,19.49
2018-09-17T21:38:29.274Z,19.40
2018-09-17T21:40:59.431Z,19.48
2018-09-17T21:43:29.321Z,19.50
2018-09-17T21:45:59.239Z,19.43
2018-09-17T21:48:29.255Z,19.31
2018-09-17T21:50:59.763Z,19.29
2018-09-17T21:53:29.287Z,19.29
2018-09-17T21:55:59.328Z,19.35
2018-09-17T21:58:29.328Z,19.32
2018-09-17T22:01:00.281Z,19.35
2018-09-17T22:03:30.663Z,19.29
2018-09-17T22:05:59.882Z,19.22
2018-09-17T22:08:29.886Z,19.22
2018-09-17T22:10:59.424Z,19.24
2018-09-17T22:13:29.537Z,19.02
2018-09-17T22:15:59.361Z,19.00
2018-09-17T22:18:28.520Z,18.99
2018-09-17T22:20:57.660Z,19.02
2018-09-17T22:23:26.831Z,19.01
2018-09-17T22:25:56.003Z,19.08
2018-09-17T22:28:25.164Z,19.11
2018-09-17T22:30:54.582Z,19.07
2018-09-17T22:33:23.760Z,18.92
2018-09-17T22:35:52.923Z,18.87
2018-09-17T22:38:22.212Z,18.85
2018-09-17T22:40:51.381Z,18.87
2018-09-17T22:43:20.569Z,18.86
2018-09-17T22:45:49.713Z,18.89
2018-09-17T22:48:19.128Z,18.79
2018-09-17T22:50:48.304Z,18.74
2018-09-17T22:53:17.457Z,18.76
2018-09-17T22:55:46.612Z,18.75
2018-09-17T22:58:15.813Z,18.82
2018-09-17T23:00:44.956Z,18.80
2018-09-17T23:03:14.116Z,18.72
2018-09-17T23:05:43.289Z,18.65
2018-09-17T23:08:12.451Z,18.57
2018-09-17T23:10:41.587Z,18.64
2018-09-17T23:13:10.750Z,18.57
2018-09-17T23:15:40.082Z,18.57
2018-09-17T23:18:09.222Z,18.48
2018-09-17T23:20:39.083Z,18.47
2018-09-17T23:23:08.232Z,18.47
2018-09-17T23:25:37.635Z,18.45
2018-09-17T23:28:06.894Z,18.38
2018-09-17T23:30:36.054Z,18.49
2018-09-17T23:33:05.207Z,18.40
2018-09-17T23:35:34.442Z,18.37
2018-09-17T23:38:04.260Z,18.37
2018-09-17T23:40:34.103Z,18.36
2018-09-17T23:43:04.135Z,18.42
2018-09-17T23:45:34.254Z,18.34
2018-09-17T23:48:04.062Z,18.38
2018-09-17T23:50:34.107Z,18.44
2018-09-17T23:53:04.078Z,18.41
2018-09-17T23:55:34.148Z,18.43
2018-09-17T23:58:04.200Z,18.34
